Time,TemperatureF,DewpointF,PressureIn,WindDirection,WindDirectionDegrees,WindSpeedMPH,WindSpeedGustMPH,Humidity,HourlyPrecipIn,Conditions,Clouds,dailyrainin,SoftwareType,DateUTC
2013-02-04 00:03:00,19.0,16.0,-100.00,WNW,299,1.0,8.0,80,0.00,,,-99.99,,2013-02-04 05:03:00,
2013-02-04 00:12:00,19.0,16.0,-100.00,SW,230,2.0,8.0,80,0.00,,,-99.99,,2013-02-04 05:12:00,
2013-02-04 00:22:00,19.0,16.0,-100.00,West,278,2.0,8.0,81,0.00,,,-99.99,,2013-02-04 05:22:00,
2013-02-04 00:33:00,19.0,16.0,-100.00,West,264,1.0,8.0,82,1.14,,,-99.99,,2013-02-04 05:33:00,
2013-02-04 00:42:00,19.0,16.0,-100.00,SW,235,1.0,8.0,85,9.06,,,-99.99,,2013-02-04 05:42:00,
2013-02-04 00:52:00,19.0,18.0,-100.00,West,266,0.0,8.0,88,15.31,,,-99.99,,2013-02-04 05:52:00,
2013-02-04 01:02:00,19.0,18.0,-100.00,West,276,0.0,8.0,90,6.22,,,-99.99,,2013-02-04 06:02:00,
2013-02-04 01:11:00,21.0,19.0,-100.00,West,269,0.0,8.0,89,14.17,,,-99.99,,2013-02-04 06:11:00,
2013-02-04 01:21:00,21.0,19.0,-100.00,West,279,0.0,8.0,90,2.83,,,-99.99,,2013-02-04 06:21:00,
2013-02-04 01:32:00,20.0,18.0,-100.00,West,271,0.0,8.0,90,2.83,,,-99.99,,2013-02-04 06:32:00,
2013-02-04 01:42:00,20.0,19.0,-100.00,West,278,0.0,8.0,90,0.00,,,-99.99,,2013-02-04 06:42:00,
2013-02-04 01:51:00,21.0,19.0,-100.00,WNW,282,0.0,8.0,89,0.00,,,-99.99,,2013-02-04 06:51:00,
2013-02-04 02:02:00,21.0,19.0,-100.00,West,279,0.0,8.0,89,0.00,,,-99.99,,2013-02-04 07:02:00,
2013-02-04 02:11:00,21.0,19.0,-100.00,West,275,1.0,8.0,88,1.14,,,-99.99,,2013-02-04 07:11:00,
2013-02-04 02:21:00,21.0,19.0,-100.00,West,276,0.0,8.0,88,0.00,,,-99.99,,2013-02-04 07:21:00,
2013-02-04 02:32:00,20.0,18.0,-100.00,West,279,0.0,8.0,86,0.00,,,-99.99,,2013-02-04 07:32:00,
2013-02-04 02:42:00,21.0,18.0,-100.00,WNW,283,1.0,8.0,81,0.00,,,-99.99,,2013-02-04 07:42:00,
2013-02-04 02:52:00,21.0,16.0,-100.00,NW,321,1.0,8.0,76,0.00,,,-99.99,,2013-02-04 07:52:00,
2013-02-04 03:01:00,20.0,16.0,-100.00,West,278,2.0,8.0,76,0.00,,,-99.99,,2013-02-04 08:01:00,
2013-02-04 03:11:00,21.0,16.0,-100.00,West,259,1.0,8.0,76,0.00,,,-99.99,,2013-02-04 08:11:00,
2013-02-04 03:21:00,20.0,14.0,-100.00,WNW,289,3.0,8.0,72,0.00,,,-99.99,,2013-02-04 08:21:00,
2013-02-04 03:32:00,20.0,12.0,-100.00,WSW,254,2.0,2.0,71,0.00,,,-99.99,,2013-02-04 08:32:00,
2013-02-04 03:42:00,19.0,10.0,-100.00,West,279,2.0,2.0,69,0.00,,,-99.99,,2013-02-04 08:42:00,
2013-02-04 03:52:00,21.0,14.0,-100.00,West,262,2.0,2.0,71,0.00,,,-99.99,,2013-02-04 08:52:00,
2013-02-04 04:02:00,21.0,14.0,-100.00,West,278,2.0,2.0,72,0.00,,,-99.99,,2013-02-04 09:02:00,
2013-02-04 04:11:00,20.0,14.0,-100.00,WNW,283,2.0,2.0,72,0.00,,,-99.99,,2013-02-04 09:11:00,
2013-02-04 04:21:00,20.0,14.0,-100.00,West,269,1.0,2.0,72,0.00,,,-99.99,,2013-02-04 09:21:00,
2013-02-04 04:32:00,20.0,14.0,-100.00,WNW,286,0.0,2.0,72,0.00,,,-99.99,,2013-02-04 09:32:00,
2013-02-04 04:42:00,20.0,14.0,-100.00,West,272,0.0,2.0,72,0.00,,,-99.99,,2013-02-04 09:42:00,
2013-02-04 04:51:00,20.0,14.0,-100.00,West,264,0.0,2.0,72,0.00,,,-99.99,,2013-02-04 09:51:00,
2013-02-04 05:01:00,20.0,14.0,-100.00,WNW,303,0.0,2.0,75,0.00,,,-99.99,,2013-02-04 10:01:00,
2013-02-04 05:11:00,20.0,16.0,-100.00,West,273,1.0,2.0,78,0.00,,,-99.99,,2013-02-04 10:11:00,
2013-02-04 05:21:00,18.0,14.0,-100.00,WSW,248,0.0,2.0,80,0.00,,,-99.99,,2013-02-04 10:21:00,
2013-02-04 05:32:00,18.0,14.0,-100.00,SW,235,1.0,2.0,81,0.00,,,-99.99,,2013-02-04 10:32:00,
2013-02-04 05:42:00,18.0,14.0,-100.00,NW,304,0.0,2.0,82,0.00,,,-99.99,,2013-02-04 10:42:00,
2013-02-04 05:51:00,18.0,14.0,-100.00,WSW,258,0.0,2.0,84,0.00,,,-99.99,,2013-02-04 10:51:00,
2013-02-04 06:02:00,18.0,16.0,-100.00,West,278,0.0,2.0,84,0.00,,,-99.99,,2013-02-04 11:02:00,
2013-02-04 06:11:00,18.0,14.0,-100.00,WSW,256,0.0,2.0,85,1.14,,,-99.99,,2013-02-04 11:11:00,
2013-02-04 06:22:00,18.0,16.0,-100.00,West,261,0.0,2.0,86,0.00,,,-99.99,,2013-02-04 11:22:00,
2013-02-04 06:32:00,18.0,16.0,-100.00,SSW,207,0.0,2.0,86,1.14,,,-99.99,,2013-02-04 11:32:00,
2013-02-04 06:42:00,18.0,16.0,-100.00,NW,313,0.0,2.0,88,29.49,,,-99.99,,2013-02-04 11:42:00,
2013-02-04 06:52:00,18.0,16.0,-100.00,ESE,122,0.0,2.0,89,2.83,,,-99.99,,2013-02-04 11:52:00,
2013-02-04 07:02:00,18.0,16.0,-100.00,SE,144,0.0,2.0,90,2.83,,,-99.99,,2013-02-04 12:02:00,
2013-02-04 07:12:00,18.0,16.0,-100.00,WSW,258,0.0,2.0,89,0.00,,,-99.99,,2013-02-04 12:12:00,
2013-02-04 07:22:00,18.0,16.0,-100.00,SE,128,0.0,2.0,89,0.00,,,-99.99,,2013-02-04 12:22:00,
2013-02-04 07:32:00,18.0,16.0,-100.00,WNW,300,0.0,2.0,89,0.00,,,-99.99,,2013-02-04 12:32:00,
2013-02-04 07:42:00,18.0,16.0,-100.00,East,86,0.0,2.0,89,0.00,,,-99.99,,2013-02-04 12:42:00,
2013-02-04 07:52:00,18.0,16.0,-100.00,SW,220,0.0,2.0,88,0.00,,,-99.99,,2013-02-04 12:52:00,
2013-02-04 08:03:00,18.0,16.0,-100.00,SSW,194,0.0,2.0,88,1.14,,,-99.99,,2013-02-04 13:03:00,
2013-02-04 08:12:00,18.0,16.0,-100.00,SSE,166,0.0,2.0,88,1.14,,,-99.99,,2013-02-04 13:12:00,
2013-02-04 08:21:00,18.0,16.0,-100.00,SW,231,0.0,2.0,88,1.14,,,-99.99,,2013-02-04 13:21:00,
2013-02-04 08:33:00,18.0,16.0,-100.00,SE,129,0.0,2.0,86,0.00,,,-99.99,,2013-02-04 13:33:00,
2013-02-04 08:42:00,19.0,16.0,-100.00,WSW,245,0.0,2.0,85,1.14,,,-99.99,,2013-02-04 13:42:00,
2013-02-04 08:51:00,19.0,16.0,-100.00,ESE,117,0.0,2.0,85,1.14,,,-99.99,,2013-02-04 13:51:00,
2013-02-04 09:03:00,19.0,16.0,-100.00,WSW,252,0.0,2.0,85,2.83,,,-99.99,,2013-02-04 14:03:00,
2013-02-04 09:12:00,19.0,16.0,-100.00,South,180,0.0,2.0,84,1.14,,,-99.99,,2013-02-04 14:12:00,
2013-02-04 09:22:00,20.0,18.0,-100.00,West,259,0.0,2.0,84,2.83,,,-99.99,,2013-02-04 14:22:00,
2013-02-04 09:33:00,21.0,18.0,-100.00,West,266,0.0,2.0,84,1.14,,,-99.99,,2013-02-04 14:33:00,
2013-02-04 09:42:00,19.0,16.0,-100.00,SSE,159,0.0,2.0,84,7.36,,,-99.99,,2013-02-04 14:42:00,
2013-02-04 09:52:00,20.0,18.0,-100.00,SSW,203,0.0,2.0,82,2.83,,,-99.99,,2013-02-04 14:52:00,
2013-02-04 10:03:00,21.0,18.0,-100.00,WSW,245,0.0,2.0,80,1.14,,,-99.99,,2013-02-04 15:03:00,
2013-02-04 10:13:00,22.0,18.0,-100.00,West,280,0.0,2.0,80,9.06,,,-99.99,,2013-02-04 15:13:00,
2013-02-04 10:23:00,22.0,18.0,-100.00,ESE,104,0.0,2.0,80,2.83,,,-99.99,,2013-02-04 15:23:00,
2013-02-04 10:33:00,22.0,18.0,-100.00,SSW,199,0.0,2.0,77,0.00,,,-99.99,,2013-02-04 15:33:00,
2013-02-04 10:43:00,26.0,19.0,-100.00,West,265,0.0,2.0,72,0.00,,,-99.99,,2013-02-04 15:43:00,
2013-02-04 10:52:00,24.0,18.0,-100.00,West,261,0.0,2.0,72,0.00,,,-99.99,,2013-02-04 15:52:00,
2013-02-04 11:03:00,24.0,18.0,-100.00,ESE,117,0.0,2.0,73,1.14,,,-99.99,,2013-02-04 16:03:00,
2013-02-04 11:11:00,24.0,18.0,-100.00,SW,220,0.0,2.0,72,4.53,,,-99.99,,2013-02-04 16:11:00,
2013-02-04 11:22:00,24.0,18.0,-100.00,WSW,241,0.0,2.0,75,4.53,,,-99.99,,2013-02-04 16:22:00,
2013-02-04 11:33:00,24.0,18.0,-100.00,WNW,288,1.0,2.0,73,6.22,,,-99.99,,2013-02-04 16:33:00,
2013-02-04 11:43:00,25.0,18.0,-100.00,South,184,0.0,2.0,72,18.70,,,-99.99,,2013-02-04 16:43:00,
2013-02-04 11:51:00,25.0,18.0,-100.00,West,276,0.0,2.0,69,4.53,,,-99.99,,2013-02-04 16:51:00,
2013-02-04 12:02:00,27.0,19.0,-100.00,SSW,197,0.0,2.0,67,0.00,,,-99.99,,2013-02-04 17:02:00,
2013-02-04 12:11:00,28.0,19.0,-100.00,SW,216,0.0,2.0,67,7.36,,,-99.99,,2013-02-04 17:11:00,
2013-02-04 12:21:00,28.0,18.0,-100.00,West,262,0.0,2.0,63,4.53,,,-99.99,,2013-02-04 17:21:00,
2013-02-04 12:32:00,28.0,18.0,-100.00,West,265,1.0,2.0,63,2.83,,,-99.99,,2013-02-04 17:32:00,
2013-02-04 12:42:00,27.0,19.0,-100.00,WNW,288,0.0,2.0,67,1.14,,,-99.99,,2013-02-04 17:42:00,
2013-02-04 12:51:00,27.0,18.0,-100.00,SW,234,0.0,2.0,66,2.83,,,-99.99,,2013-02-04 17:51:00,
2013-02-04 13:03:00,27.0,19.0,-100.00,NW,307,0.0,2.0,68,-99.99,,,-99.99,,2013-02-04 18:03:00,
2013-02-04 13:11:00,27.0,18.0,-100.00,WSW,252,0.0,2.0,68,6.22,,,-99.99,,2013-02-04 18:11:00,
2013-02-04 13:22:00,28.0,19.0,-100.00,WNW,283,0.0,2.0,71,1.14,,,-99.99,,2013-02-04 18:22:00,
2013-02-04 13:32:00,28.0,21.0,-100.00,SSE,158,0.0,2.0,71,15.31,,,-99.99,,2013-02-04 18:32:00,
2013-02-04 13:42:00,27.0,19.0,-100.00,South,189,0.0,2.0,72,10.79,,,-99.99,,2013-02-04 18:42:00,
2013-02-04 13:52:00,27.0,19.0,-100.00,SE,132,0.0,2.0,72,1.14,,,-99.99,,2013-02-04 18:52:00,
2013-02-04 14:02:00,26.0,19.0,-100.00,NW,307,1.0,2.0,76,0.00,,,-99.99,,2013-02-04 19:02:00,
2013-02-04 14:11:00,27.0,21.0,-100.00,SW,227,0.0,2.0,75,1.14,,,-99.99,,2013-02-04 19:11:00,
2013-02-04 14:22:00,28.0,21.0,-100.00,West,262,0.0,2.0,73,1.14,,,-99.99,,2013-02-04 19:22:00,
2013-02-04 14:32:00,28.0,21.0,-100.00,WNW,283,0.0,2.0,71,2.83,,,-99.99,,2013-02-04 19:32:00,
2013-02-04 14:42:00,27.0,21.0,-100.00,SSE,162,1.0,2.0,72,29.49,,,-99.99,,2013-02-04 19:42:00,
2013-02-04 14:52:00,27.0,21.0,-100.00,SE,139,0.0,2.0,77,10.79,,,-99.99,,2013-02-04 19:52:00,
2013-02-04 15:02:00,26.0,21.0,-100.00,South,176,1.0,2.0,80,2.83,,,-99.99,,2013-02-04 20:02:00,
2013-02-04 15:12:00,25.0,21.0,-100.00,SSE,160,2.0,2.0,80,1.14,,,-99.99,,2013-02-04 20:12:00,
2013-02-04 15:22:00,26.0,21.0,-100.00,South,187,1.0,2.0,80,1.14,,,-99.99,,2013-02-04 20:22:00,
2013-02-04 15:32:00,27.0,23.0,-100.00,SSE,149,0.0,2.0,80,2.83,,,-99.99,,2013-02-04 20:32:00,
2013-02-04 15:42:00,25.0,21.0,-100.00,SSW,194,1.0,2.0,80,2.83,,,-99.99,,2013-02-04 20:42:00,
2013-02-04 15:52:00,26.0,21.0,-100.00,South,176,1.0,2.0,81,2.83,,,-99.99,,2013-02-04 20:52:00,
2013-02-04 16:03:00,26.0,23.0,-100.00,West,266,0.0,2.0,81,4.53,,,-99.99,,2013-02-04 21:03:00,
2013-02-04 16:12:00,26.0,23.0,-100.00,West,264,0.0,2.0,81,7.36,,,-99.99,,2013-02-04 21:12:00,
2013-02-04 16:22:00,27.0,23.0,-100.00,WSW,254,0.0,2.0,80,15.31,,,-99.99,,2013-02-04 21:22:00,
2013-02-04 16:32:00,27.0,23.0,-100.00,South,180,0.0,2.0,81,15.31,,,-99.99,,2013-02-04 21:32:00,
2013-02-04 16:43:00,26.0,23.0,-100.00,SSE,165,0.0,2.0,85,28.35,,,-99.99,,2013-02-04 21:43:00,
2013-02-04 16:52:00,24.0,21.0,-100.00,NE,56,0.0,2.0,86,29.49,,,-99.99,,2013-02-04 21:52:00,
2013-02-04 17:03:00,26.0,23.0,-100.00,SSE,160,0.0,2.0,86,20.39,,,-99.99,,2013-02-04 22:03:00,
2013-02-04 17:12:00,25.0,23.0,-100.00,SSE,168,0.0,2.0,86,15.31,,,-99.99,,2013-02-04 22:12:00,
2013-02-04 17:21:00,25.0,23.0,-100.00,South,180,0.0,2.0,86,23.23,,,-99.99,,2013-02-04 22:21:00,
2013-02-04 17:32:00,25.0,23.0,-100.00,South,175,0.0,2.0,86,15.31,,,-99.99,,2013-02-04 22:32:00,
2013-02-04 17:42:00,27.0,25.0,-100.00,SSE,160,0.0,2.0,89,12.48,,,-99.99,,2013-02-04 22:42:00,
2013-02-04 17:51:00,27.0,25.0,-100.00,SW,224,0.0,2.0,89,1.14,,,-99.99,,2013-02-04 22:51:00,
2013-02-04 18:02:00,27.0,25.0,-100.00,SE,132,0.0,2.0,89,6.22,,,-99.99,,2013-02-04 23:02:00,
2013-02-04 18:11:00,27.0,25.0,-100.00,SE,129,0.0,2.0,90,14.17,,,-99.99,,2013-02-04 23:11:00,
2013-02-04 18:21:00,27.0,25.0,-100.00,South,180,0.0,2.0,90,14.17,,,-99.99,,2013-02-04 23:21:00,
2013-02-04 18:32:00,27.0,25.0,-100.00,SSW,193,0.0,2.0,90,6.22,,,-99.99,,2013-02-04 23:32:00,
2013-02-04 18:42:00,26.0,25.0,-100.00,NW,304,0.0,2.0,91,6.22,,,-99.99,,2013-02-04 23:42:00,
2013-02-04 18:52:00,27.0,25.0,-100.00,NE,56,0.0,2.0,90,12.48,,,-99.99,,2013-02-04 23:52:00,
2013-02-04 19:02:00,27.0,25.0,-100.00,South,175,0.0,2.0,91,4.53,,,-99.99,,2013-02-05 00:02:00,
2013-02-04 19:11:00,27.0,25.0,-100.00,SSE,149,0.0,2.0,91,9.06,,,-99.99,,2013-02-05 00:11:00,
2013-02-04 19:22:00,27.0,25.0,-100.00,ESE,103,0.0,2.0,91,-99.99,,,-99.99,,2013-02-05 00:22:00,
2013-02-04 19:32:00,26.0,25.0,-100.00,South,180,0.0,2.0,91,-99.99,,,-99.99,,2013-02-05 00:32:00,
2013-02-04 19:42:00,26.0,25.0,-100.00,SSE,159,0.0,2.0,93,10.79,,,-99.99,,2013-02-05 00:42:00,
2013-02-04 19:51:00,27.0,27.0,-100.00,SSE,160,0.0,2.0,93,9.06,,,-99.99,,2013-02-05 00:51:00,
2013-02-04 20:02:00,26.0,25.0,-100.00,SSE,163,0.0,2.0,93,0.00,,,-99.99,,2013-02-05 01:02:00,
2013-02-04 20:12:00,26.0,25.0,-100.00,SSE,152,0.0,2.0,93,14.17,,,-99.99,,2013-02-05 01:12:00,
2013-02-04 20:22:00,26.0,25.0,-100.00,SSE,151,0.0,2.0,93,9.06,,,-99.99,,2013-02-05 01:22:00,
2013-02-04 20:42:00,26.0,25.0,-100.00,ENE,73,0.0,2.0,94,6.22,,,-99.99,,2013-02-05 01:42:00,
2013-02-04 20:52:00,26.0,25.0,-100.00,SE,134,0.0,2.0,93,0.00,,,-99.99,,2013-02-05 01:52:00,
2013-02-04 21:01:00,26.0,25.0,-100.00,East,93,0.0,2.0,94,9.06,,,-99.99,,2013-02-05 02:01:00,
2013-02-04 21:11:00,26.0,25.0,-100.00,SE,124,0.0,2.0,94,6.22,,,-99.99,,2013-02-05 02:11:00,
2013-02-04 21:22:00,26.0,25.0,-100.00,East,91,0.0,2.0,94,1.14,,,-99.99,,2013-02-05 02:22:00,
2013-02-04 21:32:00,26.0,25.0,-100.00,East,90,0.0,2.0,94,0.00,,,-99.99,,2013-02-05 02:32:00,
2013-02-04 21:42:00,26.0,25.0,-100.00,ESE,111,0.0,2.0,94,4.53,,,-99.99,,2013-02-05 02:42:00,
2013-02-04 21:52:00,26.0,25.0,-100.00,East,88,0.0,2.0,94,0.00,,,-99.99,,2013-02-05 02:52:00,
2013-02-04 22:02:00,26.0,25.0,-100.00,ESE,104,0.0,2.0,94,1.14,,,-99.99,,2013-02-05 03:02:00,
2013-02-04 22:11:00,26.0,25.0,-100.00,East,96,0.0,2.0,94,1.14,,,-99.99,,2013-02-05 03:11:00,
2013-02-04 22:21:00,26.0,25.0,-100.00,NE,38,0.0,2.0,94,2.83,,,-99.99,,2013-02-05 03:21:00,
2013-02-04 22:32:00,26.0,25.0,-100.00,ENE,57,0.0,2.0,94,0.00,,,-99.99,,2013-02-05 03:32:00,
2013-02-04 22:42:00,26.0,25.0,-100.00,NE,56,0.0,2.0,94,1.14,,,-99.99,,2013-02-05 03:42:00,
2013-02-04 22:51:00,25.0,25.0,-100.00,SSE,165,0.0,2.0,94,4.53,,,-99.99,,2013-02-05 03:51:00,
2013-02-04 23:01:00,26.0,25.0,-100.00,SE,145,0.0,2.0,94,2.83,,,-99.99,,2013-02-05 04:01:00,
2013-02-04 23:11:00,25.0,25.0,-100.00,SE,124,0.0,2.0,94,0.00,,,-99.99,,2013-02-05 04:11:00,
2013-02-04 23:22:00,25.0,25.0,-100.00,NE,48,0.0,2.0,94,0.00,,,-99.99,,2013-02-05 04:22:00,
2013-02-04 23:32:00,26.0,25.0,-100.00,NNE,26,0.0,2.0,94,1.14,,,-99.99,,2013-02-05 04:32:00,
2013-02-04 23:42:00,26.0,25.0,-100.00,NNE,18,0.0,2.0,94,0.00,,,-99.99,,2013-02-05 04:42:00,
2013-02-04 23:52:00,26.0,25.0,-100.00,North,4,0.0,2.0,94,0.00,,,-99.99,,2013-02-05 04:52:00,